Time;durP1;ratioP1;P1;durP2;ratioP2;P2;SDS_P1;SDS_P2;PMS_P1;PMS_P2;Temp;Humidity;BMP_temperature;BMP_pressure;BME280_temperature;BME280_humidity;BME280_pressure;Samples;Min_cycle;Max_cycle;Signal;HPM_P1;HPM_P2
2021/10/27 00:02:22;;;;;;;9.67;7.00;;;12.30;99.90;;;;;;5022072;28;20212;-76
2021/10/27 00:04:48;;;;;;;8.83;7.10;;;12.30;99.90;;;;;;5005597;28;20234;-76
2021/10/27 00:07:15;;;;;;;9.53;6.83;;;12.30;99.90;;;;;;5003100;28;20202;-76
2021/10/27 00:09:41;;;;;;;8.90;6.00;;;12.30;99.90;;;;;;5024871;28;20171;-76
2021/10/27 00:12:07;;;;;;;8.63;6.20;;;12.30;99.90;;;;;;5025848;28;20821;-76
2021/10/27 00:14:34;;;;;;;13.27;6.13;;;12.30;99.90;;;;;;5025727;28;21122;-76
2021/10/27 00:16:59;;;;;;;10.67;7.03;;;12.30;99.90;;;;;;5013014;28;20437;-75
2021/10/27 00:19:25;;;;;;;10.60;6.50;;;12.30;99.90;;;;;;4994632;28;20441;-75
2021/10/27 00:21:51;;;;;;;11.27;7.30;;;12.30;99.90;;;;;;5010591;28;20203;-75
2021/10/27 00:24:17;;;;;;;7.60;6.73;;;12.30;99.90;;;;;;5013179;28;20186;-75
2021/10/27 00:26:42;;;;;;;10.80;7.20;;;12.30;99.90;;;;;;5009138;28;20422;-75
2021/10/27 00:29:08;;;;;;;9.80;6.33;;;12.30;99.90;;;;;;5010614;28;20545;-75
2021/10/27 00:31:34;;;;;;;10.73;7.77;;;12.30;99.90;;;;;;5006528;28;20183;-74
2021/10/27 00:33:59;;;;;;;14.37;7.23;;;12.40;99.90;;;;;;5007522;28;20495;-74
2021/10/27 00:36:25;;;;;;;10.10;7.37;;;12.40;99.90;;;;;;5010863;28;20233;-74
2021/10/27 00:38:51;;;;;;;9.20;6.70;;;12.40;99.90;;;;;;5011339;28;20197;-74
2021/10/27 00:41:17;;;;;;;11.50;7.33;;;12.40;99.90;;;;;;5010538;28;20433;-74
2021/10/27 00:43:43;;;;;;;11.00;7.10;;;12.40;99.90;;;;;;5012981;28;20195;-74
2021/10/27 00:46:20;;;;;;;16.80;8.07;;;12.40;99.90;;;;;;5009162;28;20265;-74
2021/10/27 00:48:47;;;;;;;11.30;7.40;;;12.30;99.90;;;;;;5009776;28;20178;-74
2021/10/27 00:51:13;;;;;;;11.33;7.57;;;12.30;99.90;;;;;;5007402;28;20428;-74
2021/10/27 00:53:39;;;;;;;14.00;8.20;;;12.30;99.90;;;;;;5012688;28;20835;-74
2021/10/27 00:56:05;;;;;;;14.90;8.03;;;12.30;99.90;;;;;;5010863;28;20511;-74
2021/10/27 00:58:31;;;;;;;12.30;7.63;;;12.30;99.90;;;;;;5010734;28;20810;-74
2021/10/27 01:00:57;;;;;;;11.10;7.90;;;12.30;99.90;;;;;;5008390;28;20848;-75
2021/10/27 01:03:23;;;;;;;12.80;8.57;;;12.30;99.90;;;;;;5010038;28;20497;-74
2021/10/27 01:05:50;;;;;;;13.77;9.00;;;12.30;99.90;;;;;;5010866;28;20477;-74
2021/10/27 01:08:15;;;;;;;12.07;8.10;;;12.30;99.90;;;;;;5011962;28;20454;-74
2021/10/27 01:10:42;;;;;;;12.70;9.27;;;12.30;99.90;;;;;;5011213;28;20183;-71
2021/10/27 01:13:07;;;;;;;14.80;8.80;;;12.30;99.90;;;;;;5011383;28;20201;-70
2021/10/27 01:15:41;;;;;;;13.97;9.57;;;12.30;99.90;;;;;;5010183;28;20524;-70
2021/10/27 01:18:08;;;;;;;16.07;8.60;;;12.30;99.90;;;;;;5009138;28;20624;-71
2021/10/27 01:20:35;;;;;;;10.70;8.13;;;12.30;99.90;;;;;;5010336;28;20446;-70
2021/10/27 01:23:01;;;;;;;14.50;9.00;;;12.30;99.90;;;;;;5010994;28;20472;-70
2021/10/27 01:25:27;;;;;;;18.63;8.33;;;12.30;99.90;;;;;;5009954;28;20443;-70
2021/10/27 01:27:54;;;;;;;10.07;8.83;;;12.30;99.90;;;;;;5010523;28;20516;-71
2021/10/27 01:30:22;;;;;;;21.30;9.90;;;12.30;99.90;;;;;;5010018;28;20221;-71
2021/10/27 01:32:49;;;;;;;12.77;8.90;;;12.30;99.90;;;;;;5012194;28;20765;-70
2021/10/27 01:35:16;;;;;;;19.97;10.00;;;12.40;99.90;;;;;;5011029;28;20508;-71
2021/10/27 01:37:44;;;;;;;13.37;8.73;;;12.40;99.90;;;;;;5010058;28;20467;-70
2021/10/27 01:40:13;;;;;;;16.83;10.00;;;12.40;99.90;;;;;;5008538;28;20465;-71
2021/10/27 01:42:39;;;;;;;16.83;9.50;;;12.40;99.90;;;;;;5011715;28;20476;-71
2021/10/27 01:45:06;;;;;;;12.20;9.93;;;12.30;99.90;;;;;;5010218;28;20448;-71
2021/10/27 01:47:33;;;;;;;16.90;9.70;;;12.30;99.90;;;;;;5005929;28;20473;-72
2021/10/27 01:49:59;;;;;;;17.70;9.50;;;12.40;99.90;;;;;;5010400;28;20480;-71
2021/10/27 01:52:25;;;;;;;24.60;10.00;;;12.40;99.90;;;;;;5009658;28;20807;-71
2021/10/27 01:54:50;;;;;;;12.70;9.00;;;12.40;99.90;;;;;;5009790;28;20484;-70
2021/10/27 01:57:16;;;;;;;16.63;10.47;;;12.40;99.90;;;;;;5009317;28;20183;-70
2021/10/27 01:59:42;;;;;;;12.43;10.07;;;12.40;99.90;;;;;;5010871;28;20659;-70
2021/10/27 02:02:08;;;;;;;17.73;11.40;;;12.40;99.90;;;;;;5022780;28;20289;-74
2021/10/27 02:04:33;;;;;;;14.07;10.90;;;12.40;99.90;;;;;;5012400;28;20185;-73
2021/10/27 02:07:00;;;;;;;19.43;9.97;;;12.40;99.90;;;;;;5010200;28;20484;-73
2021/10/27 02:09:26;;;;;;;12.53;10.57;;;12.40;99.90;;;;;;5010497;28;20175;-73
2021/10/27 02:11:52;;;;;;;18.23;11.10;;;12.40;99.90;;;;;;5010137;28;20818;-73
2021/10/27 02:14:18;;;;;;;19.73;11.40;;;12.40;99.90;;;;;;5018984;28;20452;-75
2021/10/27 02:16:44;;;;;;;21.30;11.83;;;12.40;99.90;;;;;;5020492;28;20531;-72
2021/10/27 02:19:10;;;;;;;17.50;11.60;;;12.40;99.90;;;;;;5012584;28;20436;-71
2021/10/27 02:21:36;;;;;;;19.07;11.70;;;12.40;99.90;;;;;;5015761;28;20201;-71
2021/10/27 02:24:03;;;;;;;16.60;12.40;;;12.40;99.90;;;;;;5011079;28;20446;-71
2021/10/27 02:26:28;;;;;;;13.77;10.03;;;12.50;99.90;;;;;;5013056;28;20448;-71
2021/10/27 02:28:54;;;;;;;17.23;12.63;;;12.60;99.90;;;;;;5013054;28;20429;-71
2021/10/27 02:31:21;;;;;;;21.10;13.27;;;12.50;99.90;;;;;;5013052;28;20206;-74
2021/10/27 02:33:46;;;;;;;19.40;11.87;;;12.50;99.90;;;;;;5015170;28;20491;-75
2021/10/27 02:36:12;;;;;;;20.73;13.00;;;12.50;99.90;;;;;;5011170;28;20536;-75
2021/10/27 02:38:41;;;;;;;17.13;12.70;;;12.50;99.90;;;;;;5012022;28;20193;-75
2021/10/27 02:41:07;;;;;;;26.13;12.60;;;12.50;99.90;;;;;;5014201;28;20421;-74
2021/10/27 02:43:33;;;;;;;18.43;12.80;;;12.50;99.90;;;;;;5015133;28;20479;-76
2021/10/27 02:45:58;;;;;;;19.70;13.07;;;12.50;99.90;;;;;;5012486;28;20195;-76
2021/10/27 02:48:24;;;;;;;18.40;13.30;;;12.50;99.90;;;;;;5009510;28;20221;-76
2021/10/27 02:50:50;;;;;;;20.83;11.90;;;12.50;99.90;;;;;;5015023;28;20189;-77
2021/10/27 02:53:16;;;;;;;22.40;13.20;;;12.50;99.90;;;;;;5012773;28;20182;-77
2021/10/27 02:55:41;;;;;;;23.90;15.17;;;12.60;99.90;;;;;;5013524;28;20240;-77
2021/10/27 02:58:07;;;;;;;21.23;13.73;;;12.50;99.90;;;;;;5011464;28;20441;-76
2021/10/27 03:00:33;;;;;;;19.70;13.23;;;12.50;99.90;;;;;;5013505;28;20640;-78
2021/10/27 03:02:59;;;;;;;24.30;13.43;;;12.50;99.90;;;;;;5014903;28;20632;-79
2021/10/27 03:05:25;;;;;;;19.03;13.10;;;12.50;99.90;;;;;;5009973;28;20170;-79
2021/10/27 03:07:51;;;;;;;26.40;14.17;;;12.50;99.90;;;;;;5014140;28;21014;-73
2021/10/27 03:10:17;;;;;;;20.10;13.00;;;12.50;99.90;;;;;;5012167;28;20205;-72
2021/10/27 03:12:43;;;;;;;20.90;13.53;;;12.60;99.90;;;;;;5014969;28;20429;-73
2021/10/27 03:15:10;;;;;;;18.10;13.67;;;12.60;99.90;;;;;;5013716;28;20919;-72
2021/10/27 03:17:35;;;;;;;23.33;13.70;;;12.60;99.90;;;;;;5013457;28;20436;-72
2021/10/27 03:20:02;;;;;;;17.03;13.23;;;12.60;99.90;;;;;;5015174;28;20433;-72
2021/10/27 03:22:27;;;;;;;22.00;15.23;;;12.60;99.90;;;;;;5012254;28;20197;-72
2021/10/27 03:24:53;;;;;;;24.70;14.63;;;12.60;99.90;;;;;;5015108;28;20429;-72
2021/10/27 03:27:19;;;;;;;21.13;14.10;;;12.50;99.90;;;;;;5009241;28;20174;-74
2021/10/27 03:29:44;;;;;;;23.80;15.13;;;12.50;99.90;;;;;;5011990;28;20269;-74
2021/10/27 03:32:10;;;;;;;20.10;13.57;;;12.60;99.90;;;;;;5014083;28;20178;-74
2021/10/27 03:34:37;;;;;;;20.20;13.63;;;12.60;99.90;;;;;;5011832;28;20179;-72
2021/10/27 03:37:04;;;;;;;18.27;13.40;;;12.60;99.90;;;;;;5012206;28;20186;-72
2021/10/27 03:39:30;;;;;;;18.27;13.47;;;12.60;99.90;;;;;;5022150;28;20488;-76
2021/10/27 03:41:55;;;;;;;20.67;12.87;;;12.60;99.90;;;;;;5035660;28;20444;-75
2021/10/27 03:44:21;;;;;;;20.80;14.00;;;12.60;99.90;;;;;;5036366;28;20189;-75
2021/10/27 03:46:47;;;;;;;18.50;14.57;;;12.60;99.90;;;;;;5022253;28;20171;-77
2021/10/27 03:49:14;;;;;;;17.60;12.90;;;12.60;99.90;;;;;;5011192;28;20429;-77
2021/10/27 03:51:39;;;;;;;21.23;14.00;;;12.70;99.90;;;;;;5010087;28;20187;-77
2021/10/27 03:54:05;;;;;;;21.20;14.73;;;12.60;99.90;;;;;;5012728;28;20898;-75
2021/10/27 03:56:31;;;;;;;24.73;14.87;;;12.70;99.90;;;;;;5015810;28;20186;-73
2021/10/27 03:58:56;;;;;;;21.50;15.47;;;12.60;99.90;;;;;;5012223;28;20188;-72
2021/10/27 04:01:22;;;;;;;22.77;14.50;;;12.60;99.90;;;;;;5011799;28;20175;-72
2021/10/27 04:03:47;;;;;;;19.60;14.10;;;12.60;99.90;;;;;;5014936;28;20254;-79
2021/10/27 04:06:13;;;;;;;28.70;14.20;;;12.60;99.90;;;;;;5014666;28;20261;-73
2021/10/27 04:08:39;;;;;;;19.20;14.63;;;12.70;99.90;;;;;;5014021;28;20186;-72
2021/10/27 04:11:05;;;;;;;25.13;13.90;;;12.70;99.90;;;;;;5018004;28;20575;-72
2021/10/27 04:13:31;;;;;;;22.47;14.50;;;12.70;99.90;;;;;;5015622;28;20465;-72
2021/10/27 04:15:57;;;;;;;17.73;13.00;;;12.70;99.90;;;;;;5015447;28;20241;-72
2021/10/27 04:18:22;;;;;;;23.37;14.23;;;12.70;99.90;;;;;;5019921;28;20429;-72
2021/10/27 04:20:48;;;;;;;20.43;14.60;;;12.70;99.90;;;;;;5020560;28;20174;-72
2021/10/27 04:23:14;;;;;;;22.40;14.43;;;12.70;99.90;;;;;;5018709;28;20217;-72
2021/10/27 04:25:39;;;;;;;20.27;14.03;;;12.70;99.90;;;;;;5014858;28;20253;-73
2021/10/27 04:28:05;;;;;;;23.30;14.40;;;12.70;99.90;;;;;;5013471;28;20273;-73
2021/10/27 04:30:31;;;;;;;22.13;14.40;;;12.60;99.90;;;;;;5013305;28;20178;-73
2021/10/27 04:32:57;;;;;;;21.73;13.77;;;12.70;99.90;;;;;;5015256;28;20519;-72
2021/10/27 04:35:24;;;;;;;27.10;14.13;;;12.60;99.90;;;;;;5012516;28;20425;-73
2021/10/27 04:37:50;;;;;;;21.20;14.87;;;12.70;99.90;;;;;;5012118;28;20308;-77
2021/10/27 04:40:18;;;;;;;30.30;16.77;;;12.70;99.90;;;;;;5011469;28;20521;-80
2021/10/27 04:42:44;;;;;;;25.50;14.77;;;12.60;99.90;;;;;;5011843;28;20202;-81
2021/10/27 04:45:11;;;;;;;23.90;14.63;;;12.70;99.90;;;;;;5009734;28;20437;-82
2021/10/27 04:47:37;;;;;;;21.27;13.70;;;12.60;99.90;;;;;;5012793;28;20429;-81
2021/10/27 04:50:05;;;;;;;20.60;14.77;;;12.60;99.90;;;;;;5013604;28;20844;-81
2021/10/27 04:52:31;;;;;;;23.17;14.37;;;12.70;99.90;;;;;;5010789;28;20433;-81
2021/10/27 04:54:57;;;;;;;20.70;13.70;;;12.70;99.90;;;;;;4993606;28;20480;-81
2021/10/27 04:57:28;;;;;;;20.03;13.43;;;12.70;99.90;;;;;;5010804;28;20178;-81
2021/10/27 04:59:53;;;;;;;21.80;14.10;;;12.70;99.90;;;;;;5011600;28;20431;-73
2021/10/27 05:02:19;;;;;;;25.83;14.20;;;12.70;99.90;;;;;;5009310;28;20914;-72
2021/10/27 05:04:46;;;;;;;20.50;13.27;;;12.70;99.90;;;;;;5012038;28;20621;-74
2021/10/27 05:07:14;;;;;;;21.67;13.80;;;12.70;99.90;;;;;;5010676;28;20453;-74
2021/10/27 05:09:41;;;;;;;21.30;13.27;;;12.70;99.90;;;;;;5009770;28;20421;-74
2021/10/27 05:12:07;;;;;;;20.23;15.27;;;12.70;99.90;;;;;;5008873;28;20919;-75
2021/10/27 05:14:41;;;;;;;23.80;12.10;;;12.70;99.90;;;;;;5009534;28;20437;-75
2021/10/27 05:17:12;;;;;;;21.90;13.40;;;12.70;99.90;;;;;;5004979;28;20443;-73
2021/10/27 05:19:45;;;;;;;19.80;13.60;;;12.70;99.90;;;;;;5010046;28;20430;-75
2021/10/27 05:22:12;;;;;;;21.20;12.80;;;12.70;99.90;;;;;;5007328;28;20746;-73
2021/10/27 05:24:38;;;;;;;18.00;13.27;;;12.70;99.90;;;;;;5008854;28;20426;-78
2021/10/27 05:27:05;;;;;;;21.90;13.77;;;12.70;99.90;;;;;;5011376;28;20439;-77
2021/10/27 05:29:31;;;;;;;17.80;12.20;;;12.70;99.90;;;;;;5007394;28;20430;-77
2021/10/27 05:31:57;;;;;;;18.50;13.33;;;12.70;99.90;;;;;;5010767;28;20484;-78
2021/10/27 05:34:23;;;;;;;21.53;13.07;;;12.70;99.90;;;;;;5010808;28;20517;-78
2021/10/27 05:36:49;;;;;;;16.10;12.37;;;12.80;99.90;;;;;;5008767;28;20429;-74
2021/10/27 05:39:15;;;;;;;24.33;12.97;;;12.70;99.90;;;;;;5011970;28;20174;-75
2021/10/27 05:41:45;;;;;;;20.20;12.07;;;12.80;99.90;;;;;;5009794;28;20580;-73
2021/10/27 05:44:11;;;;;;;16.37;11.43;;;12.80;99.90;;;;;;5011159;28;20433;-74
2021/10/27 05:46:38;;;;;;;14.67;11.67;;;12.90;99.90;;;;;;5013278;28;20471;-77
2021/10/27 05:49:12;;;;;;;22.23;12.70;;;12.80;99.90;;;;;;5010301;28;20444;-72
2021/10/27 05:57:16;;;;;;;18.60;12.40;;;12.80;99.90;;;;;;5010652;28;20424;-79
2021/10/27 05:59:43;;;;;;;16.87;12.47;;;12.80;99.90;;;;;;5013379;28;20433;-79
2021/10/27 06:02:09;;;;;;;21.77;13.47;;;12.80;99.90;;;;;;5011214;28;20249;-79
2021/10/27 06:04:36;;;;;;;20.53;14.00;;;12.80;99.90;;;;;;5009943;28;20792;-73
2021/10/27 06:07:01;;;;;;;18.90;13.70;;;12.80;99.90;;;;;;5009243;28;20174;-74
2021/10/27 06:09:30;;;;;;;20.27;13.93;;;12.80;99.90;;;;;;5004019;28;20739;-78
2021/10/27 06:12:00;;;;;;;20.23;13.23;;;12.80;99.90;;;;;;5007358;28;20200;-79
2021/10/27 06:14:26;;;;;;;17.17;11.63;;;12.70;99.90;;;;;;5005194;28;20436;-79
2021/10/27 06:16:51;;;;;;;24.00;14.33;;;12.70;99.90;;;;;;5002952;28;20426;-79
2021/10/27 06:19:17;;;;;;;20.00;14.63;;;12.70;99.90;;;;;;5004333;28;20187;-79
2021/10/27 06:21:43;;;;;;;18.60;13.93;;;12.70;99.90;;;;;;5005551;28;20216;-83
2021/10/27 06:24:09;;;;;;;22.53;15.10;;;12.70;99.90;;;;;;4985642;28;20171;-74
2021/10/27 06:26:35;;;;;;;21.00;14.70;;;12.70;99.90;;;;;;5008732;28;20448;-74
2021/10/27 06:29:09;;;;;;;20.40;15.90;;;12.70;99.90;;;;;;5016052;28;20179;-78
2021/10/27 06:31:42;;;;;;;22.80;15.33;;;12.70;99.90;;;;;;5020048;28;20182;-78
2021/10/27 06:34:26;;;;;;;25.67;15.53;;;12.60;99.90;;;;;;5020600;28;20425;-77
2021/10/27 06:47:16;;;;;;;22.93;16.60;;;12.60;99.90;;;;;;4976879;28;20438;-73
2021/10/27 06:49:42;;;;;;;26.13;18.20;;;12.60;99.90;;;;;;5014754;28;20520;-80
2021/10/27 06:52:08;;;;;;;22.43;16.47;;;12.60;99.90;;;;;;5013919;28;20425;-79
2021/10/27 06:54:34;;;;;;;22.60;16.13;;;12.70;99.90;;;;;;4999395;28;21060;-79
2021/10/27 06:56:59;;;;;;;23.07;19.03;;;12.60;99.90;;;;;;5014963;28;20183;-79
2021/10/27 06:59:40;;;;;;;27.40;20.03;;;12.70;99.90;;;;;;5012667;28;20310;-80
2021/10/27 07:04:47;;;;;;;24.43;17.97;;;12.70;99.90;;;;;;5011388;28;20779;-75
2021/10/27 07:17:51;;;;;;;29.60;20.10;;;12.70;99.90;;;;;;5009751;28;20464;-74
2021/10/27 07:20:19;;;;;;;30.30;19.43;;;12.70;99.90;;;;;;5013742;28;20433;-73
2021/10/27 07:22:45;;;;;;;24.77;17.00;;;12.70;99.90;;;;;;5015427;28;20457;-74
2021/10/27 07:25:12;;;;;;;23.77;18.37;;;12.70;99.90;;;;;;5013759;28;20421;-74
2021/10/27 07:27:38;;;;;;;21.80;17.70;;;12.70;99.90;;;;;;5014929;28;20237;-73
2021/10/27 07:30:04;;;;;;;27.30;18.73;;;12.70;99.90;;;;;;5010848;28;20437;-74
2021/10/27 07:32:30;;;;;;;26.17;17.77;;;12.80;99.90;;;;;;5013430;28;20522;-74
2021/10/27 07:35:14;;;;;;;30.20;17.27;;;12.80;99.90;;;;;;5013555;28;20425;-76
2021/10/27 07:40:41;;;;;;;29.67;18.87;;;12.80;99.90;;;;;;5016885;28;20475;-75
2021/10/27 07:43:13;;;;;;;26.10;18.00;;;12.80;99.90;;;;;;5009081;28;20466;-72
2021/10/27 07:45:40;;;;;;;27.03;17.20;;;12.90;99.90;;;;;;5011698;28;20508;-73
2021/10/27 07:48:06;;;;;;;24.20;17.90;;;12.90;99.90;;;;;;5009499;28;20503;-72
2021/10/27 07:50:33;;;;;;;25.33;17.90;;;12.90;99.90;;;;;;5007590;28;20429;-77
2021/10/27 07:53:04;;;;;;;23.33;16.43;;;13.00;99.90;;;;;;5012266;28;20432;-77
2021/10/27 07:55:31;;;;;;;21.73;16.03;;;13.00;99.90;;;;;;5009223;28;20517;-77
2021/10/27 07:57:58;;;;;;;20.63;15.83;;;13.00;99.90;;;;;;4991069;28;20441;-76
2021/10/27 08:00:26;;;;;;;23.83;15.00;;;13.00;99.90;;;;;;5006481;28;20437;-75
2021/10/27 08:02:52;;;;;;;21.00;16.20;;;13.10;99.90;;;;;;5008665;28;20480;-73
2021/10/27 08:05:19;;;;;;;24.43;15.60;;;13.10;99.90;;;;;;5009486;28;20429;-74
2021/10/27 08:07:51;;;;;;;19.00;15.17;;;13.10;99.90;;;;;;5006783;28;20461;-73
2021/10/27 08:10:18;;;;;;;20.90;15.93;;;13.00;99.90;;;;;;5008016;28;21027;-73
2021/10/27 08:12:45;;;;;;;26.43;15.70;;;13.10;99.90;;;;;;5010691;28;20436;-74
2021/10/27 08:15:12;;;;;;;22.43;15.67;;;13.10;99.90;;;;;;5007616;28;20434;-73
2021/10/27 08:17:38;;;;;;;21.33;14.90;;;13.10;99.90;;;;;;5002005;28;20527;-72
2021/10/27 08:20:06;;;;;;;20.70;14.53;;;13.20;99.90;;;;;;5010281;28;20448;-73
2021/10/27 08:22:32;;;;;;;20.33;14.70;;;13.20;99.90;;;;;;5008683;28;20464;-73
2021/10/27 08:25:01;;;;;;;17.73;13.20;;;13.20;99.90;;;;;;4996903;28;20426;-73
2021/10/27 08:27:30;;;;;;;19.70;13.50;;;13.20;99.90;;;;;;5009551;28;20488;-73
2021/10/27 08:29:57;;;;;;;18.60;13.40;;;13.20;99.90;;;;;;5006624;28;20446;-72
2021/10/27 08:32:40;;;;;;;19.07;13.70;;;13.30;99.90;;;;;;5011794;28;20759;-73
2021/10/27 08:35:06;;;;;;;17.33;13.30;;;13.30;99.90;;;;;;4995906;28;20417;-73
2021/10/27 08:37:31;;;;;;;17.07;12.67;;;13.30;99.90;;;;;;5014822;28;20918;-73
2021/10/27 08:39:57;;;;;;;18.13;13.73;;;13.40;99.90;;;;;;5011262;28;20524;-73
2021/10/27 08:42:24;;;;;;;19.10;13.90;;;13.40;99.90;;;;;;5011594;28;20199;-73
2021/10/27 08:44:49;;;;;;;17.47;13.10;;;13.30;99.90;;;;;;5010899;28;20182;-74
2021/10/27 08:47:16;;;;;;;17.30;12.23;;;13.40;99.90;;;;;;5010201;28;20425;-74
2021/10/27 08:49:43;;;;;;;20.20;15.03;;;13.40;99.90;;;;;;5007391;28;20620;-74
2021/10/27 08:52:12;;;;;;;17.07;12.47;;;13.30;99.90;;;;;;5003482;28;20441;-75
2021/10/27 08:54:38;;;;;;;15.93;12.20;;;13.40;99.90;;;;;;5008206;28;20452;-75
2021/10/27 08:57:06;;;;;;;20.13;14.30;;;13.40;99.90;;;;;;5008007;28;20421;-74
2021/10/27 08:59:59;;;;;;;17.57;13.50;;;13.40;99.90;;;;;;5011123;28;20182;-74
2021/10/27 09:36:21;;;;;;;15.90;11.80;;;13.50;99.90;;;;;;5009095;28;20750;-75
2021/10/27 10:04:31;;;;;;;15.23;11.73;;;13.60;99.90;;;;;;5008298;28;20428;-74
2021/10/27 10:06:50;;;;;;;15.33;11.73;;;13.60;99.90;;;;;;5008210;28;20406;-74
2021/10/27 10:09:18;;;;;;;13.97;12.20;;;13.70;99.90;;;;;;5009883;28;20426;-75
2021/10/27 10:11:44;;;;;;;18.33;12.60;;;13.70;99.90;;;;;;5011005;28;20441;-73
2021/10/27 10:14:12;;;;;;;15.03;12.27;;;13.70;99.90;;;;;;5010516;28;20440;-73
2021/10/27 10:16:43;;;;;;;15.20;12.30;;;13.70;99.90;;;;;;5009116;28;20445;-74
2021/10/27 10:19:15;;;;;;;12.83;11.33;;;13.70;99.90;;;;;;5008366;28;20428;-73
2021/10/27 10:21:42;;;;;;;15.87;10.53;;;13.80;99.90;;;;;;5008828;28;20771;-75
2021/10/27 10:24:14;;;;;;;15.20;11.90;;;13.70;99.90;;;;;;5012128;28;20895;-77
2021/10/27 10:26:42;;;;;;;18.03;12.33;;;13.80;99.90;;;;;;5009467;28;20421;-75
2021/10/27 10:29:08;;;;;;;14.00;12.07;;;13.70;99.90;;;;;;5011034;28;20795;-75
2021/10/27 10:31:36;;;;;;;16.63;12.30;;;13.80;99.90;;;;;;5010192;28;20437;-74
2021/10/27 10:34:11;;;;;;;12.37;11.17;;;13.70;99.90;;;;;;5010273;28;20484;-74
2021/10/27 10:36:42;;;;;;;12.33;11.03;;;13.70;99.90;;;;;;5010863;28;20433;-75
2021/10/27 10:39:43;;;;;;;12.93;10.43;;;13.80;99.90;;;;;;5008533;28;20426;-75
2021/10/27 10:42:33;;;;;;;11.87;10.67;;;13.80;99.90;;;;;;5010091;28;20488;-75
2021/10/27 11:01:47;;;;;;;12.30;11.00;;;13.80;99.90;;;;;;5011793;28;20413;-72
2021/10/27 11:38:52;;;;;;;12.07;10.87;;;13.90;99.90;;;;;;5010681;28;20441;-75
2021/10/27 11:40:56;;;;;;;14.30;11.83;;;13.90;99.90;;;;;;5003423;28;20611;-75
2021/10/27 11:43:34;;;;;;;14.50;11.80;;;13.90;99.90;;;;;;5007498;28;20476;-75
2021/10/27 11:46:11;;;;;;;14.30;11.43;;;14.00;99.90;;;;;;5009759;28;20515;-75
2021/10/27 11:51:13;;;;;;;13.50;10.40;;;13.90;99.90;;;;;;5010865;28;20550;-75
2021/10/27 11:53:39;;;;;;;15.87;12.47;;;14.00;99.90;;;;;;5010803;28;20808;-75
2021/10/27 11:56:22;;;;;;;13.37;11.10;;;13.90;99.90;;;;;;5010907;28;20814;-75
2021/10/27 11:58:54;;;;;;;10.60;9.50;;;13.90;99.90;;;;;;5002904;28;20752;-75
2021/10/27 12:01:40;;;;;;;10.20;9.20;;;13.90;99.90;;;;;;5010142;28;20839;-75
2021/10/27 12:04:10;;;;;;;12.30;11.20;;;14.00;99.90;;;;;;5010826;28;20448;-75
2021/10/27 12:17:58;;;;;;;11.90;9.57;;;14.20;99.90;;;;;;5006935;28;20484;-77
2021/10/27 12:20:36;;;;;;;11.53;10.37;;;14.20;99.90;;;;;;5007242;28;20426;-77
2021/10/27 12:23:04;;;;;;;9.67;8.77;;;14.10;99.90;;;;;;5009762;28;20580;-75
2021/10/27 12:25:30;;;;;;;16.67;10.70;;;14.10;99.90;;;;;;5012157;28;20441;-72
2021/10/27 12:28:01;;;;;;;12.73;11.00;;;14.10;99.90;;;;;;5011965;28;20937;-72
2021/10/27 12:30:43;;;;;;;10.83;9.93;;;14.10;99.90;;;;;;5007700;28;20431;-72
2021/10/27 12:33:09;;;;;;;10.03;7.87;;;14.10;99.90;;;;;;5010640;28;20448;-72
2021/10/27 12:35:35;;;;;;;13.03;9.93;;;14.20;99.90;;;;;;5008960;28;20887;-75
2021/10/27 12:40:45;;;;;;;11.70;10.40;;;14.10;99.90;;;;;;5009965;28;20554;-73
2021/10/27 12:43:19;;;;;;;11.73;9.60;;;14.10;99.90;;;;;;5010120;28;20536;-73
2021/10/27 12:45:51;;;;;;;18.87;9.60;;;14.10;99.90;;;;;;5007750;28;20426;-73
2021/10/27 12:48:22;;;;;;;9.93;9.03;;;14.10;99.90;;;;;;5009293;28;20527;-72
2021/10/27 12:51:01;;;;;;;9.67;8.70;;;14.10;99.90;;;;;;5008840;28;20422;-79
2021/10/27 12:53:32;;;;;;;11.50;8.80;;;14.10;99.90;;;;;;5008455;28;20879;-80
2021/10/27 12:56:08;;;;;;;9.20;8.37;;;14.10;99.90;;;;;;5005514;28;20459;-78
2021/10/27 12:58:38;;;;;;;11.70;9.80;;;14.10;99.90;;;;;;5002338;28;20443;-75
2021/10/27 13:01:22;;;;;;;11.10;9.87;;;14.10;99.90;;;;;;5003932;28;20422;-76
2021/10/27 13:31:07;;;;;;;8.87;7.97;;;14.00;99.90;;;;;;4919171;29;20417;-74
2021/10/27 13:33:33;;;;;;;8.50;7.70;;;14.00;99.90;;;;;;4916590;29;20847;-74
2021/10/27 13:35:58;;;;;;;8.20;7.50;;;14.00;99.90;;;;;;4940729;28;20449;-75
2021/10/27 13:38:31;;;;;;;8.70;8.00;;;14.10;99.90;;;;;;5011438;28;20932;-74
2021/10/27 13:40:57;;;;;;;10.30;7.73;;;14.10;99.90;;;;;;5009765;28;20486;-75
2021/10/27 13:43:45;;;;;;;9.93;6.70;;;14.10;99.90;;;;;;5008355;28;21022;-75
2021/10/27 14:07:47;;;;;;;7.00;5.13;;;14.20;99.90;;;;;;5007866;28;20913;-73
2021/10/27 14:10:17;;;;;;;5.60;4.90;;;14.20;99.90;;;;;;5008625;28;20418;-73
2021/10/27 14:12:54;;;;;;;5.43;5.00;;;14.20;99.90;;;;;;5009447;28;20944;-73
2021/10/27 14:18:22;;;;;;;6.53;4.67;;;14.30;99.90;;;;;;4933467;29;20460;-73
2021/10/27 14:40:04;;;;;;;4.70;4.20;;;14.20;99.90;;;;;;5012760;28;20419;-72
2021/10/27 14:48:26;;;;;;;6.03;3.80;;;14.20;99.90;;;;;;5007924;28;20500;-72
2021/10/27 15:20:51;;;;;;;6.20;3.67;;;14.30;99.90;;;;;;5012808;28;20472;-75
2021/10/27 15:31:24;;;;;;;8.27;3.40;;;14.30;99.90;;;;;;5011102;28;20532;-73
2021/10/27 15:42:12;;;;;;;3.33;3.10;;;14.20;99.90;;;;;;5011030;28;20906;-75
2021/10/27 15:52:38;;;;;;;3.37;3.10;;;14.10;99.90;;;;;;5012514;28;20420;-75
2021/10/27 15:55:08;;;;;;;4.67;3.30;;;14.20;99.90;;;;;;5008677;28;20425;-75
2021/10/27 15:57:33;;;;;;;5.63;3.50;;;14.20;99.90;;;;;;5011523;28;20189;-75
2021/10/27 15:59:59;;;;;;;3.80;3.50;;;14.20;99.90;;;;;;5007973;28;20426;-75
2021/10/27 16:02:25;;;;;;;6.50;3.30;;;14.20;99.90;;;;;;5010020;28;20198;-76
2021/10/27 16:04:50;;;;;;;4.33;3.97;;;14.20;99.90;;;;;;5011423;28;20182;-75
2021/10/27 16:07:17;;;;;;;4.03;3.10;;;14.10;99.90;;;;;;5010616;28;20194;-75
2021/10/27 16:09:46;;;;;;;3.90;3.60;;;14.20;99.90;;;;;;5012289;28;20182;-75
2021/10/27 16:12:12;;;;;;;3.90;3.60;;;14.10;99.90;;;;;;5010632;28;20429;-80
2021/10/27 16:14:39;;;;;;;3.77;3.37;;;14.10;99.90;;;;;;5011334;28;20528;-80
2021/10/27 16:17:05;;;;;;;3.43;2.80;;;14.10;99.90;;;;;;4994904;28;20434;-80
2021/10/27 16:19:31;;;;;;;3.27;2.90;;;14.10;99.90;;;;;;5005707;28;20430;-80
2021/10/27 16:21:57;;;;;;;4.00;3.00;;;14.10;99.90;;;;;;5003762;28;20524;-80
2021/10/27 16:24:25;;;;;;;3.60;2.97;;;14.10;99.90;;;;;;5007836;28;20437;-80
2021/10/27 16:26:52;;;;;;;6.60;3.40;;;14.10;99.90;;;;;;5008268;28;20429;-80
2021/10/27 16:29:18;;;;;;;4.13;3.50;;;14.10;99.90;;;;;;5010724;28;20474;-80
2021/10/27 16:31:44;;;;;;;3.33;3.03;;;14.00;99.90;;;;;;5010981;28;20437;-80
2021/10/27 16:34:10;;;;;;;3.43;3.13;;;14.00;99.90;;;;;;5006766;28;20619;-80
2021/10/27 16:36:36;;;;;;;3.07;2.97;;;14.00;99.90;;;;;;5009247;28;20576;-80
2021/10/27 16:39:04;;;;;;;3.67;3.27;;;14.00;99.90;;;;;;5006935;28;20430;-80
2021/10/27 16:41:30;;;;;;;3.60;3.30;;;14.00;99.90;;;;;;5004555;28;20274;-80
2021/10/27 16:43:56;;;;;;;6.13;3.67;;;14.00;99.90;;;;;;4993921;28;20544;-80
2021/10/27 16:46:22;;;;;;;6.20;4.23;;;14.00;99.90;;;;;;5006968;28;20562;-80
2021/10/27 16:48:49;;;;;;;3.43;3.23;;;14.00;99.90;;;;;;5011256;28;20445;-80
2021/10/27 16:51:16;;;;;;;3.40;3.10;;;14.00;99.90;;;;;;5007311;28;20237;-80
2021/10/27 16:53:42;;;;;;;3.70;3.37;;;14.00;99.90;;;;;;5004910;28;20437;-80
2021/10/27 16:56:07;;;;;;;3.90;3.10;;;14.00;99.90;;;;;;5007005;28;21329;-80
2021/10/27 16:58:43;;;;;;;4.90;3.70;;;14.00;99.90;;;;;;5037770;28;20579;-77
2021/10/27 17:01:09;;;;;;;4.17;3.53;;;14.00;99.90;;;;;;5039553;28;20512;-77
2021/10/27 17:03:36;;;;;;;4.60;4.20;;;14.00;99.90;;;;;;5024475;28;20652;-77
2021/10/27 17:06:02;;;;;;;6.97;5.00;;;14.00;99.90;;;;;;5025247;28;20583;-77
2021/10/27 17:08:28;;;;;;;6.30;4.40;;;14.00;99.90;;;;;;5023838;28;20989;-77
2021/10/27 17:10:54;;;;;;;4.27;3.73;;;13.90;99.90;;;;;;5023649;28;20433;-77
2021/10/27 17:13:22;;;;;;;3.60;3.10;;;14.00;99.90;;;;;;5026867;28;20685;-77
2021/10/27 17:15:48;;;;;;;5.73;3.40;;;14.00;99.90;;;;;;5028196;28;20429;-77
2021/10/27 17:18:14;;;;;;;4.20;3.43;;;14.00;99.90;;;;;;5023326;28;20973;-77
2021/10/27 17:20:43;;;;;;;4.60;4.10;;;13.90;99.90;;;;;;5025537;28;20186;-77
2021/10/27 17:23:16;;;;;;;3.37;3.17;;;14.00;99.90;;;;;;5023856;28;20436;-77
2021/10/27 17:25:41;;;;;;;3.87;3.57;;;13.90;99.90;;;;;;5023209;28;20450;-77
2021/10/27 17:28:07;;;;;;;5.23;4.60;;;14.00;99.90;;;;;;5025852;28;20436;-77